sensor_id;sensor_type;location;lat;lon;timestamp;P1;durP1;ratioP1;P2;durP2;ratioP2
43986;SDS011;29650;47.378;8.300;2023-12-20T03:31:01;19.95;;;14.52;;
43986;SDS011;29650;47.378;8.300;2023-12-20T03:33:28;21.80;;;14.95;;
43986;SDS011;29650;47.378;8.300;2023-12-20T03:35:55;20.83;;;16.35;;
43986;SDS011;29650;47.378;8.300;2023-12-20T03:38:22;18.90;;;14.15;;
43986;SDS011;29650;47.378;8.300;2023-12-20T03:40:49;18.83;;;14.52;;
43986;SDS011;29650;47.378;8.300;2023-12-20T03:43:16;19.80;;;15.70;;
43986;SDS011;29650;47.378;8.300;2023-12-20T03:45:43;21.58;;;16.08;;
43986;SDS011;29650;47.378;8.300;2023-12-20T03:48:12;20.95;;;14.73;;
43986;SDS011;29650;47.378;8.300;2023-12-20T03:50:39;22.70;;;15.87;;
43986;SDS011;29650;47.378;8.300;2023-12-20T03:53:06;20.17;;;15.63;;
43986;SDS011;29650;47.378;8.300;2023-12-20T03:55:33;20.60;;;15.30;;
43986;SDS011;29650;47.378;8.300;2023-12-20T03:58:00;17.13;;;13.63;;
43986;SDS011;29650;47.378;8.300;2023-12-20T04:00:27;19.90;;;13.52;;
43986;SDS011;29650;47.378;8.300;2023-12-20T04:02:54;21.70;;;16.08;;
43986;SDS011;29650;47.378;8.300;2023-12-20T04:05:22;16.67;;;12.55;;
43986;SDS011;29650;47.378;8.300;2023-12-20T04:07:49;18.37;;;14.30;;
43986;SDS011;29650;47.378;8.300;2023-12-20T04:10:16;18.08;;;13.93;;
43986;SDS011;29650;47.378;8.300;2023-12-20T04:12:43;19.65;;;14.15;;
43986;SDS011;29650;47.378;8.300;2023-12-20T04:15:10;16.27;;;13.18;;
43986;SDS011;29650;47.378;8.300;2023-12-20T04:17:37;18.38;;;14.50;;
43986;SDS011;29650;47.378;8.300;2023-12-20T04:20:05;18.55;;;14.75;;
43986;SDS011;29650;47.378;8.300;2023-12-20T04:22:34;17.93;;;14.30;;
43986;SDS011;29650;47.378;8.300;2023-12-20T04:25:01;19.67;;;12.97;;
43986;SDS011;29650;47.378;8.300;2023-12-20T04:27:28;19.98;;;14.38;;
43986;SDS011;29650;47.378;8.300;2023-12-20T04:29:55;20.98;;;14.60;;
43986;SDS011;29650;47.378;8.300;2023-12-20T04:32:22;20.75;;;15.30;;
43986;SDS011;29650;47.378;8.300;2023-12-20T04:34:49;20.40;;;14.73;;
43986;SDS011;29650;47.378;8.300;2023-12-20T04:37:16;18.42;;;13.23;;
43986;SDS011;29650;47.378;8.300;2023-12-20T04:39:45;18.10;;;13.93;;
43986;SDS011;29650;47.378;8.300;2023-12-20T04:42:12;23.47;;;14.23;;
43986;SDS011;29650;47.378;8.300;2023-12-20T04:44:39;18.65;;;15.38;;
43986;SDS011;29650;47.378;8.300;2023-12-20T04:47:06;27.58;;;18.45;;
43986;SDS011;29650;47.378;8.300;2023-12-20T04:49:32;21.27;;;16.55;;
43986;SDS011;29650;47.378;8.300;2023-12-20T04:51:59;19.77;;;15.90;;
43986;SDS011;29650;47.378;8.300;2023-12-20T04:54:26;23.73;;;16.13;;
43986;SDS011;29650;47.378;8.300;2023-12-20T04:56:55;21.92;;;15.63;;
43986;SDS011;29650;47.378;8.300;2023-12-20T04:59:22;18.07;;;13.40;;
43986;SDS011;29650;47.378;8.300;2023-12-20T05:01:49;19.63;;;15.73;;
43986;SDS011;29650;47.378;8.300;2023-12-20T05:04:16;25.67;;;19.38;;
43986;SDS011;29650;47.378;8.300;2023-12-20T05:06:43;29.33;;;19.30;;
43986;SDS011;29650;47.378;8.300;2023-12-20T05:09:10;19.83;;;15.25;;
43986;SDS011;29650;47.378;8.300;2023-12-20T05:11:37;26.73;;;20.67;;
43986;SDS011;29650;47.378;8.300;2023-12-20T05:14:06;23.20;;;17.10;;
43986;SDS011;29650;47.378;8.300;2023-12-20T05:16:33;35.97;;;21.73;;
43986;SDS011;29650;47.378;8.300;2023-12-20T05:19:00;32.58;;;22.55;;
43986;SDS011;29650;47.378;8.300;2023-12-20T05:21:31;22.35;;;17.48;;
43986;SDS011;29650;47.378;8.300;2023-12-20T05:23:58;23.75;;;17.98;;
43986;SDS011;29650;47.378;8.300;2023-12-20T05:26:26;21.48;;;16.70;;
43986;SDS011;29650;47.378;8.300;2023-12-20T05:28:54;28.27;;;19.17;;
43986;SDS011;29650;47.378;8.300;2023-12-20T05:31:22;22.73;;;17.10;;
43986;SDS011;29650;47.378;8.300;2023-12-20T05:33:49;31.70;;;22.20;;
43986;SDS011;29650;47.378;8.300;2023-12-20T05:36:16;43.55;;;26.05;;
43986;SDS011;29650;47.378;8.300;2023-12-20T05:38:44;25.50;;;19.50;;
43986;SDS011;29650;47.378;8.300;2023-12-20T05:41:11;20.65;;;16.50;;
43986;SDS011;29650;47.378;8.300;2023-12-20T05:43:38;34.33;;;21.95;;
43986;SDS011;29650;47.378;8.300;2023-12-20T05:46:05;29.33;;;20.40;;
43986;SDS011;29650;47.378;8.300;2023-12-20T05:48:33;27.33;;;20.42;;
43986;SDS011;29650;47.378;8.300;2023-12-20T05:51:00;21.77;;;15.87;;
43986;SDS011;29650;47.378;8.300;2023-12-20T05:53:27;29.05;;;20.80;;
43986;SDS011;29650;47.378;8.300;2023-12-20T05:55:54;24.02;;;17.60;;
43986;SDS011;29650;47.378;8.300;2023-12-20T05:58:21;26.35;;;18.65;;
43986;SDS011;29650;47.378;8.300;2023-12-20T06:00:48;23.73;;;18.55;;
43986;SDS011;29650;47.378;8.300;2023-12-20T06:03:15;28.08;;;20.67;;
43986;SDS011;29650;47.378;8.300;2023-12-20T06:05:44;22.20;;;16.20;;
43986;SDS011;29650;47.378;8.300;2023-12-20T06:08:10;33.40;;;21.93;;
43986;SDS011;29650;47.378;8.300;2023-12-20T06:10:37;29.73;;;20.67;;
43986;SDS011;29650;47.378;8.300;2023-12-20T06:13:05;22.88;;;16.48;;
43986;SDS011;29650;47.378;8.300;2023-12-20T06:15:32;29.95;;;19.45;;
43986;SDS011;29650;47.378;8.300;2023-12-20T06:18:00;21.00;;;16.20;;
43986;SDS011;29650;47.378;8.300;2023-12-20T06:20:28;30.35;;;20.75;;
43986;SDS011;29650;47.378;8.300;2023-12-20T06:22:56;21.08;;;16.65;;
43986;SDS011;29650;47.378;8.300;2023-12-20T06:25:23;22.52;;;16.60;;
43986;SDS011;29650;47.378;8.300;2023-12-20T06:27:51;19.63;;;15.07;;
43986;SDS011;29650;47.378;8.300;2023-12-20T06:30:18;26.98;;;19.80;;
43986;SDS011;29650;47.378;8.300;2023-12-20T06:32:45;28.30;;;20.25;;
43986;SDS011;29650;47.378;8.300;2023-12-20T06:35:12;19.58;;;15.90;;
43986;SDS011;29650;47.378;8.300;2023-12-20T06:37:39;25.42;;;20.98;;
43986;SDS011;29650;47.378;8.300;2023-12-20T06:40:09;25.05;;;17.40;;
43986;SDS011;29650;47.378;8.300;2023-12-20T06:42:36;26.38;;;20.13;;
43986;SDS011;29650;47.378;8.300;2023-12-20T06:45:04;21.10;;;15.55;;
43986;SDS011;29650;47.378;8.300;2023-12-20T06:47:31;38.85;;;26.58;;
43986;SDS011;29650;47.378;8.300;2023-12-20T06:49:58;31.55;;;22.73;;
43986;SDS011;29650;47.378;8.300;2023-12-20T06:52:25;33.65;;;21.55;;
43986;SDS011;29650;47.378;8.300;2023-12-20T06:54:53;24.85;;;18.65;;
43986;SDS011;29650;47.378;8.300;2023-12-20T06:57:21;48.15;;;31.15;;
43986;SDS011;29650;47.378;8.300;2023-12-20T06:59:48;36.33;;;26.58;;
43986;SDS011;29650;47.378;8.300;2023-12-20T07:02:17;35.10;;;22.58;;
43986;SDS011;29650;47.378;8.300;2023-12-20T07:04:44;23.23;;;17.65;;
43986;SDS011;29650;47.378;8.300;2023-12-20T07:07:11;33.22;;;23.75;;
43986;SDS011;29650;47.378;8.300;2023-12-20T07:09:38;22.15;;;17.60;;
43986;SDS011;29650;47.378;8.300;2023-12-20T07:12:07;21.30;;;15.88;;
43986;SDS011;29650;47.378;8.300;2023-12-20T07:14:36;23.27;;;18.38;;
43986;SDS011;29650;47.378;8.300;2023-12-20T07:17:03;26.23;;;19.70;;
43986;SDS011;29650;47.378;8.300;2023-12-20T07:19:30;32.05;;;22.65;;
43986;SDS011;29650;47.378;8.300;2023-12-20T07:21:57;25.48;;;18.90;;
43986;SDS011;29650;47.378;8.300;2023-12-20T07:24:24;25.02;;;16.60;;
43986;SDS011;29650;47.378;8.300;2023-12-20T07:26:51;22.70;;;17.45;;
43986;SDS011;29650;47.378;8.300;2023-12-20T07:29:18;24.75;;;17.35;;
43986;SDS011;29650;47.378;8.300;2023-12-20T07:31:47;32.97;;;24.27;;
43986;SDS011;29650;47.378;8.300;2023-12-20T07:34:14;33.97;;;24.27;;
43986;SDS011;29650;47.378;8.300;2023-12-20T07:36:41;30.58;;;20.92;;
43986;SDS011;29650;47.378;8.300;2023-12-20T07:39:08;35.30;;;24.00;;
43986;SDS011;29650;47.378;8.300;2023-12-20T07:41:35;26.40;;;18.75;;
43986;SDS011;29650;47.378;8.300;2023-12-20T07:44:03;39.10;;;27.02;;
43986;SDS011;29650;47.378;8.300;2023-12-20T07:46:30;27.43;;;20.27;;
43986;SDS011;29650;47.378;8.300;2023-12-20T07:48:59;26.77;;;20.25;;
43986;SDS011;29650;47.378;8.300;2023-12-20T07:51:25;21.58;;;17.45;;
43986;SDS011;29650;47.378;8.300;2023-12-20T07:53:52;21.77;;;18.80;;
43986;SDS011;29650;47.378;8.300;2023-12-20T07:56:19;23.70;;;18.35;;
43986;SDS011;29650;47.378;8.300;2023-12-20T07:58:47;40.97;;;27.67;;
43986;SDS011;29650;47.378;8.300;2023-12-20T08:01:15;32.67;;;23.40;;
43986;SDS011;29650;47.378;8.300;2023-12-20T08:06:11;50.22;;;30.65;;
43986;SDS011;29650;47.378;8.300;2023-12-20T08:08:38;29.80;;;21.17;;
43986;SDS011;29650;47.378;8.300;2023-12-20T08:11:05;54.85;;;33.00;;
43986;SDS011;29650;47.378;8.300;2023-12-20T08:13:32;29.10;;;21.98;;
43986;SDS011;29650;47.378;8.300;2023-12-20T08:15:59;33.50;;;23.92;;
43986;SDS011;29650;47.378;8.300;2023-12-20T08:18:28;24.98;;;20.02;;
43986;SDS011;29650;47.378;8.300;2023-12-20T08:20:55;41.25;;;26.42;;
43986;SDS011;29650;47.378;8.300;2023-12-20T08:23:23;60.95;;;36.22;;
43986;SDS011;29650;47.378;8.300;2023-12-20T08:25:50;34.83;;;24.95;;
43986;SDS011;29650;47.378;8.300;2023-12-20T08:28:17;30.80;;;21.85;;
43986;SDS011;29650;47.378;8.300;2023-12-20T08:30:44;36.97;;;23.67;;
43986;SDS011;29650;47.378;8.300;2023-12-20T08:33:11;30.25;;;21.60;;
43986;SDS011;29650;47.378;8.300;2023-12-20T08:35:38;47.25;;;31.45;;
43986;SDS011;29650;47.378;8.300;2023-12-20T08:38:06;39.53;;;26.95;;
43986;SDS011;29650;47.378;8.300;2023-12-20T08:40:34;48.67;;;32.00;;
43986;SDS011;29650;47.378;8.300;2023-12-20T08:43:01;29.17;;;21.83;;
43986;SDS011;29650;47.378;8.300;2023-12-20T08:45:29;27.73;;;20.40;;
43986;SDS011;29650;47.378;8.300;2023-12-20T08:47:55;33.20;;;25.77;;
43986;SDS011;29650;47.378;8.300;2023-12-20T08:50:23;40.50;;;27.25;;
43986;SDS011;29650;47.378;8.300;2023-12-20T08:52:50;147.65;;;89.43;;
43986;SDS011;29650;47.378;8.300;2023-12-20T08:55:17;143.98;;;100.03;;
43986;SDS011;29650;47.378;8.300;2023-12-20T08:57:46;78.43;;;51.65;;
43986;SDS011;29650;47.378;8.300;2023-12-20T09:00:14;49.65;;;36.35;;
43986;SDS011;29650;47.378;8.300;2023-12-20T09:02:41;51.72;;;33.78;;
43986;SDS011;29650;47.378;8.300;2023-12-20T09:05:08;41.65;;;27.58;;
43986;SDS011;29650;47.378;8.300;2023-12-20T09:07:36;51.28;;;35.53;;
43986;SDS011;29650;47.378;8.300;2023-12-20T09:10:03;35.97;;;24.88;;
43986;SDS011;29650;47.378;8.300;2023-12-20T09:12:30;34.92;;;24.67;;
43986;SDS011;29650;47.378;8.300;2023-12-20T09:14:58;37.45;;;25.80;;
43986;SDS011;29650;47.378;8.300;2023-12-20T09:17:27;28.67;;;21.83;;
43986;SDS011;29650;47.378;8.300;2023-12-20T09:19:54;30.83;;;22.55;;
43986;SDS011;29650;47.378;8.300;2023-12-20T09:22:21;24.58;;;20.38;;
43986;SDS011;29650;47.378;8.300;2023-12-20T09:24:47;23.60;;;18.08;;
43986;SDS011;29650;47.378;8.300;2023-12-20T09:27:14;26.25;;;18.77;;
43986;SDS011;29650;47.378;8.300;2023-12-20T09:29:41;24.30;;;18.40;;
43986;SDS011;29650;47.378;8.300;2023-12-20T09:32:10;28.45;;;21.38;;
43986;SDS011;29650;47.378;8.300;2023-12-20T09:34:37;27.20;;;21.03;;
43986;SDS011;29650;47.378;8.300;2023-12-20T09:37:04;35.55;;;23.13;;
43986;SDS011;29650;47.378;8.300;2023-12-20T09:39:32;24.02;;;17.35;;
43986;SDS011;29650;47.378;8.300;2023-12-20T09:42:00;28.67;;;20.15;;
43986;SDS011;29650;47.378;8.300;2023-12-20T09:46:56;24.20;;;16.50;;
43986;SDS011;29650;47.378;8.300;2023-12-20T09:49:25;21.30;;;16.08;;
43986;SDS011;29650;47.378;8.300;2023-12-20T09:51:54;25.40;;;18.00;;
43986;SDS011;29650;47.378;8.300;2023-12-20T09:54:22;23.88;;;16.90;;
43986;SDS011;29650;47.378;8.300;2023-12-20T09:56:49;27.33;;;18.45;;
43986;SDS011;29650;47.378;8.300;2023-12-20T09:59:16;28.42;;;18.52;;
43986;SDS011;29650;47.378;8.300;2023-12-20T10:01:44;32.58;;;23.00;;
43986;SDS011;29650;47.378;8.300;2023-12-20T10:04:11;42.53;;;29.27;;
43986;SDS011;29650;47.378;8.300;2023-12-20T10:06:41;32.05;;;24.13;;
43986;SDS011;29650;47.378;8.300;2023-12-20T10:09:09;35.65;;;26.40;;
43986;SDS011;29650;47.378;8.300;2023-12-20T10:11:37;35.53;;;22.90;;
43986;SDS011;29650;47.378;8.300;2023-12-20T10:14:04;36.22;;;23.48;;
43986;SDS011;29650;47.378;8.300;2023-12-20T10:16:32;29.05;;;20.92;;
43986;SDS011;29650;47.378;8.300;2023-12-20T10:19:00;27.75;;;19.20;;
43986;SDS011;29650;47.378;8.300;2023-12-20T10:21:27;23.40;;;18.60;;
43986;SDS011;29650;47.378;8.300;2023-12-20T10:23:56;27.80;;;19.35;;
43986;SDS011;29650;47.378;8.300;2023-12-20T10:26:24;30.83;;;23.60;;
43986;SDS011;29650;47.378;8.300;2023-12-20T10:28:52;24.13;;;20.40;;
43986;SDS011;29650;47.378;8.300;2023-12-20T10:31:26;27.42;;;18.77;;
43986;SDS011;29650;47.378;8.300;2023-12-20T10:33:55;24.63;;;17.25;;
43986;SDS011;29650;47.378;8.300;2023-12-20T10:36:23;22.77;;;16.02;;
43986;SDS011;29650;47.378;8.300;2023-12-20T10:38:52;22.92;;;16.42;;
43986;SDS011;29650;47.378;8.300;2023-12-20T10:41:25;21.42;;;14.73;;
43986;SDS011;29650;47.378;8.300;2023-12-20T10:43:55;14.32;;;11.38;;
43986;SDS011;29650;47.378;8.300;2023-12-20T10:46:24;16.00;;;13.20;;
43986;SDS011;29650;47.378;8.300;2023-12-20T10:48:53;18.30;;;13.07;;
43986;SDS011;29650;47.378;8.300;2023-12-20T10:51:21;17.40;;;13.52;;
43986;SDS011;29650;47.378;8.300;2023-12-20T10:53:51;16.88;;;11.10;;
43986;SDS011;29650;47.378;8.300;2023-12-20T10:56:19;15.73;;;12.30;;
43986;SDS011;29650;47.378;8.300;2023-12-20T10:58:49;13.93;;;11.13;;
43986;SDS011;29650;47.378;8.300;2023-12-20T11:01:17;16.17;;;12.77;;
43986;SDS011;29650;47.378;8.300;2023-12-20T11:03:51;17.60;;;12.73;;
43986;SDS011;29650;47.378;8.300;2023-12-20T11:06:26;14.85;;;11.85;;
43986;SDS011;29650;47.378;8.300;2023-12-20T11:09:03;15.77;;;10.63;;
43986;SDS011;29650;47.378;8.300;2023-12-20T11:11:42;13.75;;;10.52;;
43986;SDS011;29650;47.378;8.300;2023-12-20T11:14:34;11.77;;;10.23;;
43986;SDS011;29650;47.378;8.300;2023-12-20T11:17:07;15.38;;;10.80;;
43986;SDS011;29650;47.378;8.300;2023-12-20T11:19:38;12.25;;;10.10;;
43986;SDS011;29650;47.378;8.300;2023-12-20T11:22:31;11.23;;;8.40;;
43986;SDS011;29650;47.378;8.300;2023-12-20T11:27:28;8.98;;;6.13;;
43986;SDS011;29650;47.378;8.300;2023-12-20T11:29:57;5.35;;;3.90;;
43986;SDS011;29650;47.378;8.300;2023-12-20T11:32:28;8.80;;;5.97;;
43986;SDS011;29650;47.378;8.300;2023-12-20T11:34:56;5.72;;;5.05;;
43986;SDS011;29650;47.378;8.300;2023-12-20T11:37:28;7.50;;;5.90;;
43986;SDS011;29650;47.378;8.300;2023-12-20T11:40:00;6.70;;;4.40;;
43986;SDS011;29650;47.378;8.300;2023-12-20T11:42:31;6.50;;;5.35;;
43986;SDS011;29650;47.378;8.300;2023-12-20T11:44:59;4.32;;;3.38;;
43986;SDS011;29650;47.378;8.300;2023-12-20T11:47:28;7.30;;;4.60;;
43986;SDS011;29650;47.378;8.300;2023-12-20T11:49:56;7.28;;;4.50;;
43986;SDS011;29650;47.378;8.300;2023-12-20T11:54:53;6.75;;;3.20;;
43986;SDS011;29650;47.378;8.300;2023-12-20T11:57:21;3.85;;;2.97;;
43986;SDS011;29650;47.378;8.300;2023-12-20T11:59:48;2.58;;;2.03;;
43986;SDS011;29650;47.378;8.300;2023-12-20T12:02:15;2.50;;;2.30;;
43986;SDS011;29650;47.378;8.300;2023-12-20T12:04:42;3.13;;;2.10;;
43986;SDS011;29650;47.378;8.300;2023-12-20T12:07:09;3.70;;;1.90;;
43986;SDS011;29650;47.378;8.300;2023-12-20T12:09:37;2.58;;;2.00;;
43986;SDS011;29650;47.378;8.300;2023-12-20T12:12:06;1.98;;;1.70;;
43986;SDS011;29650;47.378;8.300;2023-12-20T12:14:33;4.60;;;2.10;;
43986;SDS011;29650;47.378;8.300;2023-12-20T12:17:02;4.70;;;1.97;;
43986;SDS011;29650;47.378;8.300;2023-12-20T12:19:36;2.42;;;1.25;;
43986;SDS011;29650;47.378;8.300;2023-12-20T12:22:06;2.22;;;1.70;;
43986;SDS011;29650;47.378;8.300;2023-12-20T12:24:36;2.80;;;1.80;;
43986;SDS011;29650;47.378;8.300;2023-12-20T12:27:05;1.33;;;1.23;;
43986;SDS011;29650;47.378;8.300;2023-12-20T12:29:34;1.48;;;0.85;;
43986;SDS011;29650;47.378;8.300;2023-12-20T12:32:01;1.77;;;1.65;;
43986;SDS011;29650;47.378;8.300;2023-12-20T12:34:32;1.90;;;1.00;;
43986;SDS011;29650;47.378;8.300;2023-12-20T12:36:59;1.98;;;1.10;;
43986;SDS011;29650;47.378;8.300;2023-12-20T12:39:26;1.63;;;1.15;;
43986;SDS011;29650;47.378;8.300;2023-12-20T12:41:55;4.15;;;1.08;;
43986;SDS011;29650;47.378;8.300;2023-12-20T12:44:23;3.33;;;1.20;;
43986;SDS011;29650;47.378;8.300;2023-12-20T12:46:51;1.20;;;1.08;;
43986;SDS011;29650;47.378;8.300;2023-12-20T12:49:18;1.40;;;0.98;;
43986;SDS011;29650;47.378;8.300;2023-12-20T12:51:46;1.33;;;1.05;;
43986;SDS011;29650;47.378;8.300;2023-12-20T12:54:13;2.42;;;1.00;;
43986;SDS011;29650;47.378;8.300;2023-12-20T12:56:42;1.20;;;1.10;;
43986;SDS011;29650;47.378;8.300;2023-12-20T12:59:09;1.52;;;0.88;;
43986;SDS011;29650;47.378;8.300;2023-12-20T13:01:38;2.67;;;1.48;;
43986;SDS011;29650;47.378;8.300;2023-12-20T13:04:05;2.05;;;1.48;;
43986;SDS011;29650;47.378;8.300;2023-12-20T13:06:35;1.98;;;1.35;;
43986;SDS011;29650;47.378;8.300;2023-12-20T13:09:03;2.60;;;1.27;;
43986;SDS011;29650;47.378;8.300;2023-12-20T13:11:30;1.67;;;1.40;;
43986;SDS011;29650;47.378;8.300;2023-12-20T13:13:58;4.93;;;1.50;;
43986;SDS011;29650;47.378;8.300;2023-12-20T13:16:25;2.13;;;1.02;;
43986;SDS011;29650;47.378;8.300;2023-12-20T13:18:53;3.05;;;1.70;;
43986;SDS011;29650;47.378;8.300;2023-12-20T13:21:21;1.95;;;1.33;;
43986;SDS011;29650;47.378;8.300;2023-12-20T13:23:48;3.97;;;1.50;;
43986;SDS011;29650;47.378;8.300;2023-12-20T13:26:15;5.32;;;1.75;;
43986;SDS011;29650;47.378;8.300;2023-12-20T13:28:42;3.78;;;1.13;;
43986;SDS011;29650;47.378;8.300;2023-12-20T13:31:09;1.58;;;1.30;;
43986;SDS011;29650;47.378;8.300;2023-12-20T13:33:36;5.95;;;1.60;;
43986;SDS011;29650;47.378;8.300;2023-12-20T13:36:06;5.05;;;1.40;;
43986;SDS011;29650;47.378;8.300;2023-12-20T13:41:00;2.40;;;1.70;;
43986;SDS011;29650;47.378;8.300;2023-12-20T13:43:27;4.53;;;1.63;;
43986;SDS011;29650;47.378;8.300;2023-12-20T13:45:54;6.85;;;2.03;;
43986;SDS011;29650;47.378;8.300;2023-12-20T13:48:22;3.85;;;1.35;;
43986;SDS011;29650;47.378;8.300;2023-12-20T13:50:49;3.00;;;1.27;;
43986;SDS011;29650;47.378;8.300;2023-12-20T13:53:17;2.40;;;1.60;;
43986;SDS011;29650;47.378;8.300;2023-12-20T13:55:45;4.63;;;1.55;;
43986;SDS011;29650;47.378;8.300;2023-12-20T13:58:12;2.35;;;1.20;;
43986;SDS011;29650;47.378;8.300;2023-12-20T14:00:40;3.40;;;1.00;;
43986;SDS011;29650;47.378;8.300;2023-12-20T14:03:07;7.93;;;1.77;;
43986;SDS011;29650;47.378;8.300;2023-12-20T14:05:35;4.05;;;1.58;;
43986;SDS011;29650;47.378;8.300;2023-12-20T14:08:02;2.55;;;1.35;;
43986;SDS011;29650;47.378;8.300;2023-12-20T14:10:31;3.55;;;1.55;;
43986;SDS011;29650;47.378;8.300;2023-12-20T14:12:58;2.58;;;1.58;;
43986;SDS011;29650;47.378;8.300;2023-12-20T14:15:26;3.72;;;1.23;;
43986;SDS011;29650;47.378;8.300;2023-12-20T14:17:53;4.30;;;1.63;;
43986;SDS011;29650;47.378;8.300;2023-12-20T14:20:20;7.03;;;2.10;;
43986;SDS011;29650;47.378;8.300;2023-12-20T14:22:48;5.68;;;1.75;;
43986;SDS011;29650;47.378;8.300;2023-12-20T14:25:15;10.80;;;2.85;;
43986;SDS011;29650;47.378;8.300;2023-12-20T14:27:44;11.40;;;5.82;;
43986;SDS011;29650;47.378;8.300;2023-12-20T14:30:12;5.22;;;1.60;;
43986;SDS011;29650;47.378;8.300;2023-12-20T14:32:41;4.88;;;1.70;;
43986;SDS011;29650;47.378;8.300;2023-12-20T14:35:09;6.95;;;2.05;;
43986;SDS011;29650;47.378;8.300;2023-12-20T14:37:36;5.45;;;1.95;;
43986;SDS011;29650;47.378;8.300;2023-12-20T14:40:05;4.18;;;1.98;;
43986;SDS011;29650;47.378;8.300;2023-12-20T14:42:36;2.55;;;1.65;;
43986;SDS011;29650;47.378;8.300;2023-12-20T14:45:05;6.90;;;2.15;;
43986;SDS011;29650;47.378;8.300;2023-12-20T14:47:32;4.93;;;1.80;;
43986;SDS011;29650;47.378;8.300;2023-12-20T14:50:01;8.80;;;2.13;;
43986;SDS011;29650;47.378;8.300;2023-12-20T14:52:29;3.78;;;1.65;;
43986;SDS011;29650;47.378;8.300;2023-12-20T14:54:56;7.50;;;2.28;;
43986;SDS011;29650;47.378;8.300;2023-12-20T14:57:23;4.82;;;2.10;;
43986;SDS011;29650;47.378;8.300;2023-12-20T14:59:51;8.32;;;2.53;;
43986;SDS011;29650;47.378;8.300;2023-12-20T15:02:20;6.80;;;1.92;;
43986;SDS011;29650;47.378;8.300;2023-12-20T15:04:47;3.95;;;2.08;;
43986;SDS011;29650;47.378;8.300;2023-12-20T15:07:15;8.73;;;2.20;;
43986;SDS011;29650;47.378;8.300;2023-12-20T15:09:43;5.97;;;1.98;;
43986;SDS011;29650;47.378;8.300;2023-12-20T15:12:12;8.73;;;1.95;;
43986;SDS011;29650;47.378;8.300;2023-12-20T15:14:39;4.78;;;1.98;;
43986;SDS011;29650;47.378;8.300;2023-12-20T15:17:07;10.75;;;3.63;;
43986;SDS011;29650;47.378;8.300;2023-12-20T15:19:35;11.50;;;2.00;;
43986;SDS011;29650;47.378;8.300;2023-12-20T15:22:03;2.55;;;1.20;;
43986;SDS011;29650;47.378;8.300;2023-12-20T15:24:30;4.30;;;2.33;;
43986;SDS011;29650;47.378;8.300;2023-12-20T15:27:03;8.13;;;2.80;;
43986;SDS011;29650;47.378;8.300;2023-12-20T15:29:31;5.35;;;1.67;;
43986;SDS011;29650;47.378;8.300;2023-12-20T15:31:58;5.25;;;1.83;;
43986;SDS011;29650;47.378;8.300;2023-12-20T15:34:25;5.57;;;1.65;;
43986;SDS011;29650;47.378;8.300;2023-12-20T15:36:54;6.55;;;1.92;;
43986;SDS011;29650;47.378;8.300;2023-12-20T15:39:21;8.68;;;2.22;;
43986;SDS011;29650;47.378;8.300;2023-12-20T15:41:48;6.82;;;2.03;;
43986;SDS011;29650;47.378;8.300;2023-12-20T15:44:15;7.78;;;2.92;;
43986;SDS011;29650;47.378;8.300;2023-12-20T15:46:43;6.80;;;2.67;;
43986;SDS011;29650;47.378;8.300;2023-12-20T15:49:10;5.28;;;2.40;;
43986;SDS011;29650;47.378;8.300;2023-12-20T15:51:37;3.30;;;1.55;;
43986;SDS011;29650;47.378;8.300;2023-12-20T15:54:06;8.40;;;2.65;;
43986;SDS011;29650;47.378;8.300;2023-12-20T15:56:33;2.88;;;1.35;;
43986;SDS011;29650;47.378;8.300;2023-12-20T15:59:01;4.72;;;1.63;;
43986;SDS011;29650;47.378;8.300;2023-12-20T16:01:29;4.38;;;1.52;;
43986;SDS011;29650;47.378;8.300;2023-12-20T16:03:56;5.60;;;1.88;;
43986;SDS011;29650;47.378;8.300;2023-12-20T16:06:24;6.78;;;1.88;;
43986;SDS011;29650;47.378;8.300;2023-12-20T16:08:51;7.63;;;2.20;;
43986;SDS011;29650;47.378;8.300;2023-12-20T16:11:20;3.97;;;2.10;;
43986;SDS011;29650;47.378;8.300;2023-12-20T16:13:47;7.53;;;2.42;;
43986;SDS011;29650;47.378;8.300;2023-12-20T16:16:16;7.60;;;2.08;;
43986;SDS011;29650;47.378;8.300;2023-12-20T16:18:43;4.28;;;2.13;;
43986;SDS011;29650;47.378;8.300;2023-12-20T16:21:10;8.23;;;2.33;;
43986;SDS011;29650;47.378;8.300;2023-12-20T16:23:38;5.07;;;2.13;;
43986;SDS011;29650;47.378;8.300;2023-12-20T16:26:05;5.03;;;1.90;;
43986;SDS011;29650;47.378;8.300;2023-12-20T16:28:34;3.53;;;1.52;;
43986;SDS011;29650;47.378;8.300;2023-12-20T16:31:01;6.00;;;2.45;;
43986;SDS011;29650;47.378;8.300;2023-12-20T16:33:28;8.15;;;2.40;;
43986;SDS011;29650;47.378;8.300;2023-12-20T16:35:56;3.97;;;1.90;;
43986;SDS011;29650;47.378;8.300;2023-12-20T16:38:23;4.38;;;1.75;;
43986;SDS011;29650;47.378;8.300;2023-12-20T16:40:50;3.88;;;1.65;;
43986;SDS011;29650;47.378;8.300;2023-12-20T16:43:17;7.97;;;2.40;;
43986;SDS011;29650;47.378;8.300;2023-12-20T16:45:46;6.97;;;2.53;;
43986;SDS011;29650;47.378;8.300;2023-12-20T16:48:13;4.93;;;1.80;;
43986;SDS011;29650;47.378;8.300;2023-12-20T16:50:40;4.75;;;2.20;;
43986;SDS011;29650;47.378;8.300;2023-12-20T16:53:08;8.68;;;3.10;;
43986;SDS011;29650;47.378;8.300;2023-12-20T16:55:35;7.05;;;3.03;;
43986;SDS011;29650;47.378;8.300;2023-12-20T16:58:02;7.13;;;2.97;;
43986;SDS011;29650;47.378;8.300;2023-12-20T17:00:30;9.02;;;2.88;;
43986;SDS011;29650;47.378;8.300;2023-12-20T17:02:59;5.18;;;2.00;;
43986;SDS011;29650;47.378;8.300;2023-12-20T17:05:26;6.80;;;2.42;;
43986;SDS011;29650;47.378;8.300;2023-12-20T17:07:54;6.60;;;2.63;;
43986;SDS011;29650;47.378;8.300;2023-12-20T17:10:21;4.80;;;2.70;;
43986;SDS011;29650;47.378;8.300;2023-12-20T17:12:48;5.95;;;2.63;;
43986;SDS011;29650;47.378;8.300;2023-12-20T17:15:16;7.93;;;3.08;;
43986;SDS011;29650;47.378;8.300;2023-12-20T17:17:43;6.60;;;3.40;;
43986;SDS011;29650;47.378;8.300;2023-12-20T17:20:13;11.33;;;3.43;;
43986;SDS011;29650;47.378;8.300;2023-12-20T17:22:40;4.38;;;2.70;;
43986;SDS011;29650;47.378;8.300;2023-12-20T17:25:07;6.55;;;2.90;;
43986;SDS011;29650;47.378;8.300;2023-12-20T17:30:03;5.30;;;2.35;;
43986;SDS011;29650;47.378;8.300;2023-12-20T17:32:32;11.32;;;3.78;;
43986;SDS011;29650;47.378;8.300;2023-12-20T17:35:02;9.27;;;3.15;;
43986;SDS011;29650;47.378;8.300;2023-12-20T17:37:31;7.72;;;3.45;;
43986;SDS011;29650;47.378;8.300;2023-12-20T17:39:58;12.35;;;2.55;;
43986;SDS011;29650;47.378;8.300;2023-12-20T17:42:25;6.25;;;2.83;;
43986;SDS011;29650;47.378;8.300;2023-12-20T17:44:53;4.95;;;2.65;;
43986;SDS011;29650;47.378;8.300;2023-12-20T17:47:20;10.48;;;3.60;;
43986;SDS011;29650;47.378;8.300;2023-12-20T17:49:47;7.47;;;3.47;;
43986;SDS011;29650;47.378;8.300;2023-12-20T17:52:14;9.20;;;4.05;;
43986;SDS011;29650;47.378;8.300;2023-12-20T17:54:43;6.93;;;3.97;;
43986;SDS011;29650;47.378;8.300;2023-12-20T17:57:10;10.77;;;4.28;;
43986;SDS011;29650;47.378;8.300;2023-12-20T17:59:37;11.93;;;4.07;;
43986;SDS011;29650;47.378;8.300;2023-12-20T18:02:06;7.78;;;3.90;;
43986;SDS011;29650;47.378;8.300;2023-12-20T18:04:34;5.65;;;4.10;;
43986;SDS011;29650;47.378;8.300;2023-12-20T18:07:01;6.95;;;3.50;;
43986;SDS011;29650;47.378;8.300;2023-12-20T18:09:28;4.82;;;3.25;;
43986;SDS011;29650;47.378;8.300;2023-12-20T18:11:57;4.53;;;2.50;;
43986;SDS011;29650;47.378;8.300;2023-12-20T18:14:24;5.40;;;2.25;;
43986;SDS011;29650;47.378;8.300;2023-12-20T18:16:52;4.97;;;2.33;;
43986;SDS011;29650;47.378;8.300;2023-12-20T18:19:19;3.00;;;1.85;;
43986;SDS011;29650;47.378;8.300;2023-12-20T18:21:46;4.15;;;2.35;;